Time;durP1;ratioP1;P1;durP2;ratioP2;P2;SDS_P1;SDS_P2;PMS_P1;PMS_P2;Temp;Humidity;BMP_temperature;BMP_pressure;BME280_temperature;BME280_humidity;BME280_pressure;Samples;Min_cycle;Max_cycle;Signal;HPM_P1;HPM_P2
2022/01/19 00:01:12;;;;;;;59.50;28.50;;;;;;;-0.80;77.26;101546.60;105808;1276;138028;-71
2022/01/19 00:03:44;;;;;;;57.90;28.70;;;;;;;-0.78;77.52;101551.27;105879;1276;110187;-72
2022/01/19 00:06:16;;;;;;;56.60;26.80;;;;;;;-0.81;77.38;101548.81;105803;1276;138358;-71
2022/01/19 00:08:49;;;;;;;55.90;27.50;;;;;;;-0.84;77.13;101549.58;105856;1275;109060;-71
2022/01/19 00:11:22;;;;;;;58.80;27.60;;;;;;;-0.86;77.35;101548.29;105910;1276;97835;-71
2022/01/19 00:13:54;;;;;;;50.40;25.10;;;;;;;-0.88;77.11;101541.22;105718;1276;139532;-69
2022/01/19 00:16:26;;;;;;;54.50;24.20;;;;;;;-0.87;77.00;101536.48;105887;1276;112206;-71
2022/01/19 00:18:58;;;;;;;48.30;25.50;;;;;;;-0.84;77.22;101531.10;105825;1276;140879;-72
2022/01/19 00:21:32;;;;;;;48.30;23.50;;;;;;;-0.79;77.26;101524.77;105807;1276;108853;-70
2022/01/19 00:24:06;;;;;;;60.90;26.00;;;;;;;-0.78;77.20;101516.11;105692;1276;138588;-69
2022/01/19 00:26:39;;;;;;;59.00;26.40;;;;;;;-0.75;77.24;101509.03;105905;1276;97932;-69
2022/01/19 00:29:11;;;;;;;60.50;28.30;;;;;;;-0.72;77.15;101507.95;106058;1276;111920;-71
2022/01/19 00:31:43;;;;;;;60.10;27.20;;;;;;;-0.72;77.17;101502.81;105820;1276;138188;-71
2022/01/19 00:34:16;;;;;;;54.60;27.30;;;;;;;-0.73;77.15;101505.67;107456;1273;108922;-69
2022/01/19 00:36:48;;;;;;;54.50;26.30;;;;;;;-0.73;77.41;101503.13;107363;1276;138831;-71
2022/01/19 00:39:23;;;;;;;54.30;25.50;;;;;;;-0.73;77.33;101503.13;107502;1276;96100;-71
2022/01/19 00:41:55;;;;;;;54.90;25.80;;;;;;;-0.71;77.31;101504.59;107439;1275;112656;-71
2022/01/19 00:44:27;;;;;;;57.90;24.10;;;;;;;-0.69;77.75;101504.48;106266;1276;139525;-70
2022/01/19 00:46:59;;;;;;;50.20;24.60;;;;;;;-0.64;77.45;101507.57;105830;1276;105535;-68
2022/01/19 00:49:31;;;;;;;52.30;25.60;;;;;;;-0.60;77.80;101503.05;105774;1276;138235;-70
2022/01/19 00:52:03;;;;;;;51.80;24.10;;;;;;;-0.57;77.95;101499.89;105891;1276;97799;-70
2022/01/19 00:54:35;;;;;;;52.80;24.60;;;;;;;-0.57;77.74;101503.30;105774;1276;138265;-71
2022/01/19 00:57:08;;;;;;;48.30;23.50;;;;;;;-0.58;77.84;101495.43;105907;1276;106643;-70
2022/01/19 00:59:40;;;;;;;45.10;22.60;;;;;;;-0.59;77.67;101504.27;105890;1276;107346;-68
2022/01/19 01:02:12;;;;;;;47.60;22.50;;;;;;;-0.60;77.59;101493.66;105754;1276;139066;-70
2022/01/19 01:04:45;;;;;;;41.30;20.30;;;;;;;-0.61;77.50;101484.05;105680;1276;97870;-70
2022/01/19 01:07:16;;;;;;;38.10;16.60;;;;;;;-0.59;77.84;101485.83;105889;1276;139000;-69
2022/01/19 01:09:48;;;;;;;37.10;16.60;;;;;;;-0.58;77.63;101483.80;105811;1276;107815;-70
2022/01/19 01:12:27;;;;;;;37.80;16.90;;;;;;;-0.60;77.59;101481.52;105926;1274;138499;-71
2022/01/19 01:20:40;;;;;;;33.70;16.20;;;;;;;-0.52;77.88;101473.44;105867;1276;137910;-70
2022/01/19 01:23:12;;;;;;;36.40;17.40;;;;;;;-0.49;77.74;101465.33;105988;1275;108964;-70
2022/01/19 01:25:45;;;;;;;40.30;17.80;;;;;;;-0.49;77.57;101461.05;105685;1276;139551;-71
2022/01/19 01:28:18;;;;;;;34.30;16.50;;;;;;;-0.50;77.64;101455.73;105835;1276;97855;-71
2022/01/19 01:30:51;;;;;;;31.20;16.00;;;;;;;-0.50;77.60;101450.60;105786;1276;138983;-70
2022/01/19 01:33:23;;;;;;;36.50;15.90;;;;;;;-0.49;77.90;101443.13;105925;1276;112950;-70
2022/01/19 01:35:55;;;;;;;31.40;14.50;;;;;;;-0.44;77.71;101435.76;105980;1275;109093;-70
2022/01/19 01:38:28;;;;;;;34.10;15.20;;;;;;;-0.40;77.86;101431.77;105872;1276;138588;-70
2022/01/19 01:41:15;;;;;;;31.70;15.50;;;;;;;-0.34;77.98;101420.02;105971;1275;97853;-70
2022/01/19 01:43:52;;;;;;;40.20;17.60;;;;;;;-0.30;77.88;101416.03;105889;1276;138014;-70
2022/01/19 01:46:34;;;;;;;46.00;18.10;;;;;;;-0.24;77.93;101410.21;105989;1276;110738;-71
2022/01/19 01:49:14;;;;;;;42.60;19.50;;;;;;;-0.23;77.73;101399.99;105746;1276;138304;-69
2022/01/19 01:56:31;;;;;;;49.70;21.30;;;;;;;-0.31;77.58;101387.11;105763;1276;139191;-71
2022/01/19 01:59:09;;;;;;;52.90;20.90;;;;;;;-0.33;77.69;101392.34;105965;1276;97753;-71
2022/01/19 02:01:41;;;;;;;47.90;20.60;;;;;;;-0.34;77.73;101385.83;105782;1275;139241;-71
2022/01/19 02:04:16;;;;;;;49.80;20.90;;;;;;;-0.34;77.70;101368.06;105908;1276;107831;-70
2022/01/19 02:07:11;;;;;;;44.00;19.50;;;;;;;-0.31;78.02;101359.09;105752;1276;139040;-69
2022/01/19 02:09:54;;;;;;;50.90;21.00;;;;;;;-0.24;78.12;101355.36;106024;1275;98257;-70
2022/01/19 02:23:51;;;;;;;48.60;21.20;;;;;;;-0.13;77.76;101358.95;105944;1276;96606;-69
2022/01/19 02:26:25;;;;;;;46.40;19.80;;;;;;;-0.13;77.74;101353.80;105839;1276;139685;-69
2022/01/19 02:29:13;;;;;;;49.90;18.80;;;;;;;-0.12;77.57;101349.89;105883;1276;110383;-70
2022/01/19 02:36:28;;;;;;;39.30;18.60;;;;;;;-0.15;77.68;101348.81;105863;1274;139331;-70
2022/01/19 02:40:28;;;;;;;42.90;19.00;;;;;;;-0.09;77.82;101340.25;105988;1275;98080;-70
2022/01/19 02:43:07;;;;;;;49.80;19.40;;;;;;;-0.07;77.80;101333.45;105857;1275;138410;-70
2022/01/19 02:51:21;;;;;;;44.00;18.20;;;;;;;-0.13;78.33;101308.35;107447;1276;139012;-71
2022/01/19 02:53:53;;;;;;;44.90;17.10;;;;;;;-0.15;78.33;101310.16;107388;1275;95845;-70
2022/01/19 02:56:30;;;;;;;38.50;16.40;;;;;;;-0.18;78.59;101302.89;105887;1275;138909;-70
2022/01/19 02:59:13;;;;;;;41.40;16.10;;;;;;;-0.21;78.74;101300.75;106021;1275;109019;-71
2022/01/19 03:10:14;;;;;;;42.30;18.10;;;;;;;-0.08;79.21;101284.55;106007;1276;112504;-70
2022/01/19 03:12:46;;;;;;;39.10;16.70;;;;;;;-0.10;79.26;101278.69;105947;1276;109158;-70
2022/01/19 03:15:18;;;;;;;43.90;16.40;;;;;;;-0.11;79.26;101266.00;105822;1275;138778;-69
2022/01/19 03:17:50;;;;;;;33.90;16.40;;;;;;;-0.11;79.52;101260.70;105853;1276;98742;-71
2022/01/19 03:20:22;;;;;;;40.30;15.50;;;;;;;-0.13;79.27;101252.45;105806;1275;138734;-70
2022/01/19 03:23:02;;;;;;;39.10;14.80;;;;;;;-0.11;79.52;101242.23;105871;1276;112633;-70
2022/01/19 03:25:37;;;;;;;35.50;15.00;;;;;;;-0.08;79.81;101239.06;105670;1276;139625;-70
2022/01/19 03:28:09;;;;;;;36.10;14.90;;;;;;;-0.04;79.91;101231.83;105782;1276;109143;-71
2022/01/19 03:30:41;;;;;;;37.50;14.90;;;;;;;0.00;79.98;101219.63;105861;1276;98074;-71
2022/01/19 03:33:14;;;;;;;32.30;14.30;;;;;;;0.05;80.04;101212.23;105852;1274;137659;-70
2022/01/19 03:35:47;;;;;;;32.40;14.10;;;;;;;0.05;80.00;101210.17;105984;1274;112496;-70
2022/01/19 03:38:19;;;;;;;38.30;15.60;;;;;;;0.03;80.05;101203.97;105797;1274;138547;-70
2022/01/19 03:40:51;;;;;;;32.30;13.70;;;;;;;0.02;80.16;101200.02;105950;1277;107081;-70
2022/01/19 03:43:23;;;;;;;34.50;14.90;;;;;;;-0.01;80.09;101194.29;105731;1276;139636;-70
2022/01/19 03:46:13;;;;;;;36.80;14.90;;;;;;;-0.04;80.24;101194.88;105822;1276;97915;-69
2022/01/19 03:48:54;;;;;;;27.90;13.00;;;;;;;-0.04;80.35;101193.00;105872;1276;111533;-70
2022/01/19 03:51:26;;;;;;;35.20;13.50;;;;;;;0.02;80.68;101182.73;105856;1276;140276;-70
2022/01/19 03:53:58;;;;;;;23.20;12.60;;;;;;;0.01;80.52;101177.73;105835;1276;107771;-71
2022/01/19 03:56:30;;;;;;;32.10;14.30;;;;;;;-0.00;80.76;101170.36;105906;1276;138311;-71
2022/01/19 03:59:03;;;;;;;34.60;14.40;;;;;;;0.04;80.82;101168.92;105945;1276;97872;-70
2022/01/19 04:01:35;;;;;;;32.80;15.20;;;;;;;0.06;80.94;101168.65;105875;1276;138211;-70
2022/01/19 04:06:58;;;;;;;34.80;15.90;;;;;;;0.07;80.94;101165.77;105854;1276;109029;-70
2022/01/19 04:09:32;;;;;;;33.00;15.60;;;;;;;0.02;80.81;101157.28;105861;1275;138625;-71
2022/01/19 04:12:05;;;;;;;31.20;14.50;;;;;;;-0.01;80.82;101157.54;105851;1276;98023;-71
2022/01/19 04:14:37;;;;;;;30.80;13.90;;;;;;;-0.05;81.04;101153.84;107397;1275;139612;-72
2022/01/19 04:17:12;;;;;;;29.40;13.40;;;;;;;-0.03;81.24;101143.46;105850;1276;109119;-70
2022/01/19 04:19:47;;;;;;;31.80;13.60;;;;;;;0.04;81.48;101146.55;105741;1276;139273;-71
2022/01/19 04:22:23;;;;;;;30.20;13.60;;;;;;;0.14;81.65;101137.38;105930;1276;97886;-70
2022/01/19 04:25:00;;;;;;;32.30;15.40;;;;;;;0.23;81.70;101129.23;105949;1276;98500;-70
2022/01/19 04:27:32;;;;;;;28.80;14.10;;;;;;;0.29;81.67;101131.59;105833;1276;137636;-71
2022/01/19 04:30:09;;;;;;;32.60;15.10;;;;;;;0.29;81.51;101133.47;105945;1276;107802;-71
2022/01/19 04:33:02;;;;;;;31.60;15.10;;;;;;;0.30;81.47;101131.42;105856;1275;140144;-72
2022/01/19 04:35:49;;;;;;;30.50;14.80;;;;;;;0.26;81.58;101120.58;105935;1276;97942;-69
2022/01/19 04:45:19;;;;;;;28.50;13.40;;;;;;;0.30;81.89;101111.59;104933;1286;138661;-70
2022/01/19 04:48:11;;;;;;;27.50;13.40;;;;;;;0.31;81.71;101108.87;105104;1286;94532;-71
2022/01/19 05:01:52;;;;;;;31.20;15.40;;;;;;;0.48;81.83;101087.02;106247;1276;137151;-70
2022/01/19 05:04:47;;;;;;;28.00;15.10;;;;;;;0.48;81.92;101081.90;107325;1277;108516;-70
2022/01/19 05:07:33;;;;;;;27.00;13.80;;;;;;;0.50;82.05;101077.48;107246;1277;138095;-69
2022/01/19 05:13:24;;;;;;;32.70;14.50;;;;;;;0.51;81.87;101073.41;106825;1277;109003;-70
2022/01/19 05:15:43;;;;;;;28.90;13.90;;;;;;;0.58;81.91;101064.50;105975;1277;137955;-70
2022/01/19 05:18:14;;;;;;;34.70;14.60;;;;;;;0.62;81.90;101062.52;106402;1277;109519;-69
2022/01/19 05:20:42;;;;;;;28.80;14.20;;;;;;;0.71;82.24;101061.84;105696;1277;138989;-70
2022/01/19 05:23:14;;;;;;;36.10;15.20;;;;;;;0.77;82.01;101057.36;105834;1277;107844;-69
2022/01/19 05:25:43;;;;;;;27.10;15.00;;;;;;;0.77;81.82;101048.81;105818;1277;138128;-70
2022/01/19 05:28:21;;;;;;;36.80;16.20;;;;;;;0.78;81.81;101050.54;105796;1277;95173;-70
2022/01/19 05:30:50;;;;;;;28.50;15.00;;;;;;;0.76;81.82;101045.20;105825;1277;109609;-70
2022/01/19 05:33:19;;;;;;;32.70;14.80;;;;;;;0.74;81.68;101040.52;105714;1277;137566;-71
2022/01/19 05:35:47;;;;;;;27.10;13.80;;;;;;;0.74;81.83;101043.46;105830;1277;108873;-70
2022/01/19 05:38:38;;;;;;;29.10;13.80;;;;;;;0.78;82.05;101037.70;105810;1277;138013;-70
2022/01/19 05:41:22;;;;;;;28.00;12.80;;;;;;;0.81;81.89;101038.27;105842;1276;95050;-70
2022/01/19 05:43:51;;;;;;;27.40;13.70;;;;;;;0.85;82.07;101034.06;105898;1276;139915;-70
2022/01/19 05:46:21;;;;;;;33.20;14.40;;;;;;;0.88;82.04;101034.81;105939;1276;108850;-70
2022/01/19 05:48:50;;;;;;;33.30;15.00;;;;;;;0.90;81.86;101038.80;105972;1276;108966;-71
2022/01/19 05:51:18;;;;;;;31.80;15.00;;;;;;;0.91;81.80;101037.97;105727;1276;137426;-70
2022/01/19 05:53:49;;;;;;;28.90;15.30;;;;;;;0.91;81.90;101040.54;105985;1276;95202;-70
2022/01/19 05:56:18;;;;;;;34.40;15.60;;;;;;;0.91;81.69;101038.99;105751;1276;139103;-71
2022/01/19 05:59:09;;;;;;;28.10;13.80;;;;;;;0.90;81.75;101040.34;105969;1276;108918;-70
2022/01/19 06:01:37;;;;;;;28.20;12.80;;;;;;;0.91;81.86;101043.11;105671;1277;140399;-70
2022/01/19 06:04:07;;;;;;;29.80;13.10;;;;;;;0.93;81.67;101036.63;105711;1278;95189;-70
2022/01/19 06:07:09;;;;;;;25.60;12.00;;;;;;;0.97;81.98;101030.71;105909;1276;95381;-71
2022/01/19 06:10:04;;;;;;;27.40;12.70;;;;;;;1.03;81.94;101026.18;105773;1276;137299;-70
2022/01/19 06:12:37;;;;;;;27.10;12.60;;;;;;;1.06;81.68;101027.61;105767;1277;108209;-70
2022/01/19 06:15:09;;;;;;;25.30;13.00;;;;;;;1.05;81.52;101022.28;105881;1277;137337;-70
2022/01/19 06:17:38;;;;;;;29.40;13.20;;;;;;;1.03;81.56;101016.27;107323;1276;93508;-70
2022/01/19 06:20:12;;;;;;;24.20;12.90;;;;;;;1.02;81.68;101016.06;106742;1276;137503;-70
2022/01/19 06:22:41;;;;;;;24.50;13.30;;;;;;;1.00;81.61;101012.44;105946;1276;108664;-71
2022/01/19 06:25:10;;;;;;;24.60;12.40;;;;;;;0.99;81.67;101011.22;105890;1276;108365;-71
2022/01/19 06:27:38;;;;;;;27.80;12.20;;;;;;;0.98;81.70;101010.70;105742;1276;139019;-71
2022/01/19 06:30:14;;;;;;;25.50;11.10;;;;;;;0.99;81.76;101010.03;106005;1276;95154;-71
2022/01/19 06:32:44;;;;;;;23.10;11.30;;;;;;;1.02;81.70;101006.82;105913;1275;137919;-72
2022/01/19 06:35:13;;;;;;;27.70;12.40;;;;;;;1.02;81.77;100998.77;105961;1276;109847;-70
2022/01/19 06:38:02;;;;;;;21.10;11.30;;;;;;;1.06;81.76;100996.79;105769;1276;137723;-70
2022/01/19 06:40:41;;;;;;;26.00;12.60;;;;;;;1.09;81.69;100993.96;105841;1276;109274;-70
2022/01/19 06:43:09;;;;;;;30.00;13.80;;;;;;;1.10;81.66;100992.43;105993;1275;95473;-70
2022/01/19 06:45:38;;;;;;;25.90;12.90;;;;;;;1.11;81.73;100988.86;105797;1276;139304;-70
2022/01/19 06:48:25;;;;;;;27.50;12.50;;;;;;;1.09;81.55;100991.23;106589;1276;110180;-69
2022/01/19 06:50:53;;;;;;;26.60;12.50;;;;;;;1.06;81.60;100985.83;105822;1276;138570;-69
2022/01/19 06:53:29;;;;;;;25.20;11.50;;;;;;;1.07;81.73;100983.45;105902;1276;108999;-71
2022/01/19 06:56:07;;;;;;;25.10;12.30;;;;;;;1.12;81.82;100984.58;105871;1276;138368;-70
2022/01/19 06:58:36;;;;;;;26.00;11.70;;;;;;;1.16;81.85;100985.34;105922;1276;95288;-70
2022/01/19 07:01:25;;;;;;;24.60;11.90;;;;;;;1.15;81.62;100988.06;105925;1276;109893;-70
2022/01/19 07:04:30;;;;;;;24.80;12.50;;;;;;;1.16;81.65;100994.41;105385;1281;109202;-69
2022/01/19 07:06:58;;;;;;;28.30;13.60;;;;;;;1.17;81.67;100992.71;105903;1275;108845;-70
2022/01/19 07:09:34;;;;;;;;;;;;;;;1.18;81.65;100989.48;105708;1276;137447;-70
2022/01/19 07:12:05;;;;;;;27.50;13.60;;;;;;;1.17;81.72;100991.00;105837;1274;95136;-70
2022/01/19 07:14:35;;;;;;;28.30;13.20;;;;;;;1.18;81.75;100986.23;107370;1274;137960;-69
2022/01/19 07:17:05;;;;;;;23.30;12.60;;;;;;;1.18;81.57;100982.81;107443;1276;108962;-70
2022/01/19 07:19:34;;;;;;;21.90;11.80;;;;;;;1.19;81.67;100977.52;107473;1274;109782;-70
2022/01/19 07:22:03;;;;;;;22.80;11.90;;;;;;;1.24;81.62;100972.77;107391;1274;138652;-73
2022/01/19 07:24:32;;;;;;;21.70;11.20;;;;;;;1.29;81.66;100975.63;107472;1274;94796;-70
2022/01/19 07:27:01;;;;;;;23.40;11.60;;;;;;;1.35;81.64;100973.84;107388;1276;138579;-70
2022/01/19 07:29:30;;;;;;;23.40;11.90;;;;;;;1.39;81.54;100973.55;107394;1276;106651;-71
2022/01/19 07:32:00;;;;;;;21.20;11.50;;;;;;;1.43;81.40;100973.45;107547;1274;108123;-70
2022/01/19 07:34:31;;;;;;;24.20;13.10;;;;;;;1.45;81.34;100974.20;107410;1276;138036;-70
2022/01/19 07:37:04;;;;;;;24.00;13.10;;;;;;;1.49;81.32;100973.76;107460;1276;93461;-70
2022/01/19 07:39:33;;;;;;;24.10;12.70;;;;;;;1.51;81.24;100967.94;105778;1276;137736;-70
2022/01/19 07:42:02;;;;;;;27.00;12.90;;;;;;;1.50;81.11;100964.67;105911;1276;107801;-70
2022/01/19 07:44:54;;;;;;;24.60;12.40;;;;;;;1.55;81.25;100966.28;105699;1276;139369;-70
2022/01/19 07:47:43;;;;;;;26.20;12.10;;;;;;;1.59;81.09;100964.11;105933;1276;95167;-71
2022/01/19 07:50:26;;;;;;;27.00;12.10;;;;;;;1.63;81.12;100958.55;105909;1275;138091;-71
2022/01/19 07:53:01;;;;;;;23.40;12.10;;;;;;;1.68;81.05;100950.39;105885;1274;109795;-71
2022/01/19 07:55:49;;;;;;;21.90;12.40;;;;;;;1.71;80.95;100946.14;105961;1275;108844;-70
2022/01/19 07:58:36;;;;;;;28.30;13.80;;;;;;;1.71;80.83;100936.53;105880;1275;138697;-70
2022/01/19 08:01:14;;;;;;;27.30;13.30;;;;;;;1.74;80.87;100932.80;105950;1276;95169;-71
2022/01/19 08:03:53;;;;;;;25.90;13.80;;;;;;;1.74;80.80;100927.66;107371;1274;137466;-71
2022/01/19 08:06:24;;;;;;;28.90;14.20;;;;;;;1.72;80.77;100927.80;107568;1275;108672;-72
2022/01/19 08:08:55;;;;;;;25.50;13.20;;;;;;;1.72;80.64;100921.98;107328;1276;138693;-72
2022/01/19 08:11:23;;;;;;;26.90;11.90;;;;;;;1.72;80.75;100923.36;106582;1276;107631;-71
2022/01/19 08:14:01;;;;;;;29.00;12.40;;;;;;;1.74;80.78;100920.12;105853;1275;95138;-71
2022/01/19 08:16:30;;;;;;;27.00;13.60;;;;;;;1.77;80.71;100918.27;105771;1275;137599;-71
2022/01/19 08:18:58;;;;;;;24.60;13.40;;;;;;;1.76;80.55;100917.23;105894;1276;109936;-70
2022/01/19 08:21:34;;;;;;;24.60;13.80;;;;;;;1.73;80.53;100910.34;105817;1276;137423;-71
2022/01/19 08:24:04;;;;;;;28.50;14.30;;;;;;;1.72;80.58;100909.30;106035;1276;108805;-71
2022/01/19 08:26:33;;;;;;;30.80;14.20;;;;;;;1.70;80.62;100907.90;107459;1275;138986;-71
2022/01/19 08:29:05;;;;;;;27.50;14.00;;;;;;;1.72;80.73;100902.77;107304;1276;94222;-71
2022/01/19 08:31:35;;;;;;;24.90;13.80;;;;;;;1.71;80.60;100900.54;106045;1276;109949;-71
2022/01/19 08:34:11;;;;;;;29.10;13.60;;;;;;;1.72;80.68;100895.23;105683;1276;138033;-70
2022/01/19 08:36:58;;;;;;;25.30;13.10;;;;;;;1.73;80.70;100892.17;105900;1276;109699;-71
2022/01/19 08:39:39;;;;;;;29.30;13.90;;;;;;;1.79;80.81;100894.31;105839;1274;137680;-70
2022/01/19 08:42:09;;;;;;;29.60;14.50;;;;;;;1.83;80.82;100897.63;106157;1272;95166;-71
2022/01/19 08:44:39;;;;;;;30.10;15.20;;;;;;;1.85;80.64;100893.02;106261;1272;137424;-70
2022/01/19 08:47:21;;;;;;;30.40;16.60;;;;;;;1.84;80.48;100881.00;107680;1272;109029;-71
2022/01/19 08:50:15;;;;;;;32.60;15.70;;;;;;;1.83;80.54;100879.79;107184;1272;107760;-71
2022/01/19 08:53:03;;;;;;;26.20;15.50;;;;;;;1.79;80.48;100876.83;106301;1272;95584;-70
2022/01/19 08:55:39;;;;;;;27.30;14.90;;;;;;;1.76;80.54;100874.20;106193;1271;95262;-71
2022/01/19 08:58:07;;;;;;;28.20;14.60;;;;;;;1.74;80.65;100871.59;105967;1273;137914;-70
2022/01/19 09:00:36;;;;;;;30.30;14.80;;;;;;;1.75;80.67;100875.21;106206;1273;109176;-71
2022/01/19 09:03:05;;;;;;;26.20;14.40;;;;;;;1.76;80.68;100872.31;106016;1272;138380;-71
2022/01/19 09:05:34;;;;;;;35.50;16.10;;;;;;;1.76;80.73;100867.52;106091;1271;96522;-71
2022/01/19 09:08:04;;;;;;;32.00;16.70;;;;;;;1.77;80.79;100856.91;106149;1273;96373;-71
2022/01/19 09:10:33;;;;;;;31.70;17.50;;;;;;;1.79;80.82;100854.01;106050;1272;139160;-71
2022/01/19 09:13:04;;;;;;;36.20;17.30;;;;;;;1.80;80.70;100853.70;106173;1273;108900;-71
2022/01/19 09:15:34;;;;;;;33.80;17.20;;;;;;;1.81;80.69;100858.52;105923;1273;138824;-70
2022/01/19 09:18:03;;;;;;;31.60;16.90;;;;;;;1.83;80.82;100845.84;106185;1273;98034;-71
2022/01/19 09:20:32;;;;;;;30.10;15.00;;;;;;;1.86;80.69;100846.39;106207;1273;97796;-71
2022/01/19 09:23:02;;;;;;;25.80;15.20;;;;;;;1.88;80.64;100841.27;106083;1273;137980;-71
2022/01/19 09:25:32;;;;;;;30.90;15.30;;;;;;;1.90;80.64;100837.17;106054;1272;109119;-71
2022/01/19 09:28:02;;;;;;;30.90;16.10;;;;;;;1.89;80.58;100834.42;105761;1273;138825;-75
2022/01/19 09:30:31;;;;;;;35.90;17.80;;;;;;;1.91;80.51;100826.04;106026;1271;96662;-70
2022/01/19 09:33:08;;;;;;;32.60;17.30;;;;;;;1.92;80.55;100827.77;106020;1273;137581;-73
2022/01/19 09:35:52;;;;;;;38.00;19.30;;;;;;;1.93;80.57;100822.63;106161;1273;111250;-72
2022/01/19 09:38:24;;;;;;;30.00;16.90;;;;;;;1.92;80.47;100823.48;106178;1271;110048;-73
2022/01/19 09:40:53;;;;;;;29.70;16.70;;;;;;;1.93;80.64;100824.52;105914;1273;138313;-73
2022/01/19 09:43:22;;;;;;;29.20;15.90;;;;;;;1.94;80.49;100813.20;106044;1273;96482;-71
2022/01/19 09:45:52;;;;;;;31.50;16.20;;;;;;;1.93;80.48;100810.29;105901;1272;138417;-71
2022/01/19 09:48:22;;;;;;;26.30;15.80;;;;;;;1.95;80.33;100805.67;106012;1272;111301;-70
2022/01/19 09:50:51;;;;;;;27.10;15.70;;;;;;;1.98;80.45;100802.48;106014;1273;139411;-70
2022/01/19 09:53:20;;;;;;;34.20;17.40;;;;;;;2.02;80.42;100799.26;105947;1273;107708;-69
2022/01/19 09:55:50;;;;;;;34.90;17.20;;;;;;;2.06;80.37;100790.22;106120;1273;97305;-70
2022/01/19 09:58:21;;;;;;;35.10;18.50;;;;;;;2.09;80.31;100780.80;107008;1272;137468;-70
2022/01/19 10:00:51;;;;;;;36.10;18.00;;;;;;;2.10;80.11;100778.75;106476;1271;111308;-70
2022/01/19 10:03:22;;;;;;;34.70;19.20;;;;;;;2.09;80.12;100772.73;105972;1273;138038;-69
2022/01/19 10:06:03;;;;;;;32.00;18.00;;;;;;;2.09;80.16;100769.14;106040;1273;109056;-70
2022/01/19 10:08:35;;;;;;;32.80;17.30;;;;;;;2.07;80.10;100770.83;105768;1271;95701;-70
2022/01/19 10:11:16;;;;;;;30.00;16.80;;;;;;;2.05;80.11;100767.04;107539;1272;138102;-69
2022/01/19 10:16:59;;;;;;;26.80;16.30;;;;;;;2.10;80.00;100765.20;105864;1271;138691;-69
2022/01/19 10:19:31;;;;;;;29.80;17.60;;;;;;;2.11;79.99;100771.04;106051;1273;108928;-69
2022/01/19 10:22:09;;;;;;;30.90;17.30;;;;;;;2.09;79.97;100771.55;106011;1272;137503;-70
2022/01/19 10:24:52;;;;;;;35.10;18.30;;;;;;;2.08;80.06;100769.98;107628;1271;95213;-70
2022/01/19 10:27:33;;;;;;;34.80;19.70;;;;;;;2.08;79.99;100765.01;106062;1273;137966;-70
2022/01/19 10:30:28;;;;;;;31.60;17.30;;;;;;;2.06;79.99;100755.89;106056;1273;108040;-70
2022/01/19 10:33:00;;;;;;;31.70;17.60;;;;;;;2.02;80.10;100756.04;105638;1276;138515;-69
2022/01/19 10:35:31;;;;;;;34.00;17.90;;;;;;;2.02;80.04;100754.33;105850;1276;96673;-70
2022/01/19 10:38:15;;;;;;;30.90;16.90;;;;;;;2.03;80.25;100749.88;105744;1276;96509;-68
2022/01/19 10:41:05;;;;;;;32.30;18.60;;;;;;;2.07;80.71;100746.30;105657;1276;138448;-70
2022/01/19 10:43:37;;;;;;;27.00;17.40;;;;;;;2.12;80.57;100746.87;105800;1277;109111;-70
2022/01/19 10:46:30;;;;;;;34.30;18.70;;;;;;;2.12;80.46;100737.95;106447;1276;137833;-69
2022/01/19 10:49:01;;;;;;;37.00;19.60;;;;;;;2.12;80.64;100740.17;107326;1277;94840;-70
2022/01/19 10:51:33;;;;;;;32.70;18.80;;;;;;;2.11;80.52;100731.23;106121;1276;137556;-69
2022/01/19 10:54:11;;;;;;;34.80;18.30;;;;;;;2.14;80.66;100729.22;105588;1276;112379;-69
2022/01/19 10:56:41;;;;;;;28.40;17.70;;;;;;;2.17;80.90;100727.20;105538;1276;109007;-69
2022/01/19 10:59:13;;;;;;;31.30;18.00;;;;;;;2.24;80.68;100735.67;105466;1277;138335;-70
2022/01/19 11:01:45;;;;;;;33.70;19.00;;;;;;;2.29;80.68;100727.30;105566;1276;96499;-69
2022/01/19 11:04:26;;;;;;;30.00;17.70;;;;;;;2.31;80.12;100719.59;105556;1276;138801;-69
2022/01/19 11:07:01;;;;;;;38.70;19.70;;;;;;;2.29;79.98;100719.06;107289;1276;111664;-69
2022/01/19 11:09:32;;;;;;;38.40;19.20;;;;;;;2.26;79.75;100712.19;107387;1272;137714;-70
2022/01/19 11:12:05;;;;;;;32.30;18.70;;;;;;;2.24;79.78;100702.55;106877;1271;108972;-69
2022/01/19 11:14:35;;;;;;;31.90;18.80;;;;;;;2.22;79.72;100695.16;106131;1271;96498;-70
2022/01/19 11:17:24;;;;;;;31.20;17.90;;;;;;;2.19;79.77;100690.16;105939;1271;139645;-69
2022/01/19 11:19:53;;;;;;;29.00;16.90;;;;;;;2.18;79.91;100692.91;106109;1273;110277;-69
2022/01/19 11:22:34;;;;;;;27.30;16.50;;;;;;;2.17;79.83;100690.84;106011;1272;138395;-69
2022/01/19 11:25:15;;;;;;;27.40;16.60;;;;;;;2.16;79.83;100691.66;107743;1271;107800;-68
2022/01/19 11:28:04;;;;;;;28.40;16.20;;;;;;;2.12;79.88;100687.69;107523;1273;137833;-69
2022/01/19 11:30:35;;;;;;;26.90;16.40;;;;;;;2.13;79.97;100676.71;107634;1272;94835;-69
2022/01/19 11:33:17;;;;;;;27.60;16.80;;;;;;;2.12;79.88;100674.13;107732;1272;111169;-69
2022/01/19 11:35:47;;;;;;;31.70;18.40;;;;;;;2.11;79.76;100666.92;107623;1271;140152;-69
2022/01/19 11:38:34;;;;;;;26.60;16.20;;;;;;;2.11;79.84;100675.14;107624;1271;108789;-69
2022/01/19 11:41:25;;;;;;;30.00;16.90;;;;;;;2.10;79.81;100675.15;107642;1271;139185;-69
2022/01/19 11:43:56;;;;;;;29.40;15.50;;;;;;;2.10;79.68;100668.45;107576;1272;94549;-70
2022/01/19 11:46:31;;;;;;;25.00;15.40;;;;;;;2.10;79.82;100662.29;107525;1271;140073;-70
2022/01/19 11:49:01;;;;;;;30.10;15.90;;;;;;;2.17;80.08;100661.49;107688;1271;109205;-70
2022/01/19 11:51:34;;;;;;;28.80;16.50;;;;;;;2.23;79.94;100661.37;107485;1272;138470;-70
2022/01/19 11:54:15;;;;;;;37.30;17.30;;;;;;;2.25;79.76;100653.15;107722;1272;94756;-70
2022/01/19 11:57:13;;;;;;;27.90;17.30;;;;;;;2.29;79.75;100647.34;107199;1272;96501;-70
2022/01/19 12:00:09;;;;;;;34.20;18.60;;;;;;;2.29;79.66;100646.14;105511;1279;137412;-69
2022/01/19 12:02:46;;;;;;;33.80;18.10;;;;;;;2.28;79.67;100644.42;105585;1279;108907;-70
2022/01/19 12:05:39;;;;;;;27.00;17.40;;;;;;;2.29;79.50;100637.73;105406;1278;138753;-70
2022/01/19 12:08:30;;;;;;;31.70;19.40;;;;;;;2.26;79.49;100634.45;105273;1278;96643;-70
2022/01/19 12:11:11;;;;;;;37.50;23.10;;;;;;;2.26;79.50;100622.61;105441;1278;139658;-71
2022/01/19 12:13:57;;;;;;;34.70;21.20;;;;;;;2.25;79.28;100622.95;107114;1278;111142;-69
2022/01/19 12:16:50;;;;;;;35.50;22.10;;;;;;;2.22;79.19;100615.39;107122;1278;137986;-70
2022/01/19 12:19:23;;;;;;;32.90;21.60;;;;;;;2.21;79.52;100603.55;107075;1278;107964;-71
2022/01/19 12:21:55;;;;;;;36.50;22.20;;;;;;;2.21;79.42;100602.86;107093;1278;138903;-70
2022/01/19 12:24:37;;;;;;;41.10;23.20;;;;;;;2.15;79.36;100596.64;107191;1278;94818;-70
2022/01/19 12:27:10;;;;;;;39.50;22.70;;;;;;;2.12;79.31;100593.67;107115;1278;108845;-70
2022/01/19 12:29:50;;;;;;;37.60;21.60;;;;;;;2.08;79.44;100596.58;106027;1278;139169;-69
2022/01/19 12:32:48;;;;;;;35.50;22.20;;;;;;;2.05;79.40;100595.02;105599;1278;109160;-70
2022/01/19 12:35:22;;;;;;;34.70;20.40;;;;;;;2.05;79.64;100578.89;105907;1273;138317;-70
2022/01/19 12:37:53;;;;;;;36.70;22.00;;;;;;;2.06;79.68;100578.55;106318;1271;96504;-69
2022/01/19 12:40:46;;;;;;;38.30;22.30;;;;;;;2.09;79.66;100577.02;107617;1271;137467;-69
2022/01/19 12:43:31;;;;;;;35.60;22.90;;;;;;;2.11;79.73;100575.33;107311;1276;108901;-70
2022/01/19 12:46:01;;;;;;;38.80;23.50;;;;;;;2.11;79.56;100572.06;107223;1276;137948;-70
2022/01/19 12:48:38;;;;;;;44.20;27.10;;;;;;;2.12;79.66;100563.14;107338;1276;94914;-69